Time;durP1;ratioP1;P1;durP2;ratioP2;P2;SDS_P1;SDS_P2;PMS_P1;PMS_P2;Temp;Humidity;BMP_temperature;BMP_pressure;BME280_temperature;BME280_humidity;BME280_pressure;Samples;Min_cycle;Max_cycle;Signal;HPM_P1;HPM_P2
2022/08/11 00:02:34;;;;;;;1.02;0.32;;;20.60;99.90;;;;;;5058917;28;20049;-67
2022/08/11 00:05:21;;;;;;;0.00;0.00;;;20.70;99.90;;;;;;5035512;28;20481;-67
2022/08/11 00:07:53;;;;;;;0.00;0.00;;;20.60;99.90;;;;;;5050730;28;20056;-66
2022/08/11 00:10:21;;;;;;;0.45;0.38;;;20.60;99.90;;;;;;5050019;28;20111;-66
2022/08/11 00:13:02;;;;;;;0.00;0.00;;;20.60;99.90;;;;;;5051738;28;20037;-67
2022/08/11 00:15:40;;;;;;;0.00;0.00;;;20.60;99.90;;;;;;5049969;28;20041;-66
2022/08/11 00:18:06;;;;;;;0.00;0.00;;;20.60;99.90;;;;;;5048719;28;20041;-67
2022/08/11 00:20:35;;;;;;;0.00;0.00;;;20.50;99.90;;;;;;5042549;28;20381;-66
2022/08/11 00:23:12;;;;;;;0.10;0.10;;;20.60;99.90;;;;;;5031233;28;20046;-66
2022/08/11 00:25:41;;;;;;;6.45;1.08;;;20.50;99.90;;;;;;5042044;28;20099;-66
2022/08/11 00:28:25;;;;;;;0.08;0.08;;;20.50;99.90;;;;;;5040516;28;20496;-66
2022/08/11 00:30:52;;;;;;;0.10;0.10;;;20.40;99.90;;;;;;5051615;28;20056;-66
2022/08/11 00:33:21;;;;;;;0.20;0.20;;;20.50;99.90;;;;;;5051040;28;20076;-66
2022/08/11 00:35:49;;;;;;;0.22;0.22;;;20.40;99.90;;;;;;5037594;28;20044;-66
2022/08/11 00:38:17;;;;;;;0.20;0.20;;;20.40;99.90;;;;;;5039275;28;20055;-66
2022/08/11 00:41:20;;;;;;;0.00;0.00;;;20.40;99.90;;;;;;5043026;28;20037;-66
2022/08/11 00:43:58;;;;;;;0.00;0.00;;;20.40;99.90;;;;;;5049561;28;20052;-67
2022/08/11 00:46:39;;;;;;;0.08;0.08;;;20.40;99.90;;;;;;5040547;28;20049;-67
2022/08/11 00:49:12;;;;;;;0.17;0.13;;;20.30;99.90;;;;;;5029826;28;20045;-67
2022/08/11 00:51:50;;;;;;;0.10;0.10;;;20.40;99.90;;;;;;5043273;28;20064;-67
2022/08/11 00:54:38;;;;;;;0.05;0.05;;;20.30;99.90;;;;;;5030302;28;20103;-67
2022/08/11 00:57:47;;;;;;;0.03;0.03;;;20.30;99.90;;;;;;5029357;28;20077;-67
2022/08/11 01:00:25;;;;;;;0.10;0.10;;;20.30;99.90;;;;;;5032458;28;20452;-67
2022/08/11 01:03:29;;;;;;;0.38;0.38;;;20.20;99.90;;;;;;5042310;28;20057;-66
2022/08/11 01:06:13;;;;;;;3.55;0.93;;;20.20;99.90;;;;;;5038550;28;20045;-67
2022/08/11 01:09:32;;;;;;;0.28;0.28;;;20.20;99.90;;;;;;5044592;28;20052;-66
2022/08/11 01:12:19;;;;;;;0.00;0.00;;;20.20;99.90;;;;;;5042659;28;20444;-66
2022/08/11 01:15:03;;;;;;;0.20;0.20;;;20.20;99.90;;;;;;5033986;28;20049;-66
2022/08/11 01:18:06;;;;;;;0.00;0.00;;;20.20;99.90;;;;;;5036859;28;20056;-66
2022/08/11 01:20:40;;;;;;;0.00;0.00;;;20.10;99.90;;;;;;5046050;28;20235;-66
2022/08/11 01:23:30;;;;;;;0.10;0.10;;;20.20;99.90;;;;;;5044990;28;20467;-66
2022/08/11 01:26:37;;;;;;;0.05;0.05;;;20.10;99.90;;;;;;5038186;28;20404;-66
2022/08/11 01:29:30;;;;;;;0.22;0.10;;;20.10;99.90;;;;;;5038094;28;20051;-67
2022/08/11 01:32:32;;;;;;;0.10;0.10;;;20.10;99.90;;;;;;5044369;28;20078;-66
2022/08/11 01:35:26;;;;;;;0.00;0.00;;;20.00;99.90;;;;;;5047058;28;20400;-66
2022/08/11 01:38:26;;;;;;;0.10;0.10;;;20.00;99.90;;;;;;5040737;28;20044;-67
2022/08/11 01:41:09;;;;;;;0.00;0.00;;;20.00;99.90;;;;;;5041699;28;20036;-67
2022/08/11 01:50:37;;;;;;;0.10;0.10;;;19.90;99.90;;;;;;5038613;28;20045;-66
2022/08/11 01:53:37;;;;;;;0.00;0.00;;;19.90;99.90;;;;;;5036035;28;20133;-67
2022/08/11 01:56:14;;;;;;;0.13;0.13;;;19.90;99.90;;;;;;5046400;28;20089;-67
2022/08/11 01:59:08;;;;;;;0.00;0.00;;;19.90;99.90;;;;;;5048398;28;20060;-66
2022/08/11 02:01:43;;;;;;;;;;;19.80;99.90;;;;;;5028334;28;20052;-66
2022/08/11 02:04:42;;;;;;;0.00;0.00;;;19.90;99.90;;;;;;5029519;28;20015;-66
2022/08/11 02:07:32;;;;;;;0.08;0.08;;;19.80;99.90;;;;;;5030200;28;20049;-66
2022/08/11 02:13:34;;;;;;;0.17;0.17;;;19.80;99.90;;;;;;5028930;28;20049;-66
2022/08/11 02:16:33;;;;;;;0.00;0.00;;;19.80;99.90;;;;;;5022164;28;20058;-66
2022/08/11 02:25:34;;;;;;;0.20;0.20;;;19.70;99.90;;;;;;5046065;28;20053;-66
2022/08/11 02:28:03;;;;;;;0.10;0.10;;;19.70;99.90;;;;;;5036495;28;20484;-66
2022/08/11 02:30:37;;;;;;;0.00;0.00;;;19.60;99.90;;;;;;5049063;28;20074;-66
2022/08/11 02:33:25;;;;;;;0.03;0.03;;;19.70;99.90;;;;;;5044150;28;20417;-66
2022/08/11 02:36:09;;;;;;;0.00;0.00;;;19.60;99.90;;;;;;5040878;28;20083;-66
2022/08/11 02:38:53;;;;;;;;;;;19.60;99.90;;;;;;5028242;28;20095;-66
2022/08/11 02:44:58;;;;;;;0.32;0.20;;;19.60;99.90;;;;;;5028376;28;20058;-66
2022/08/11 02:47:38;;;;;;;0.43;0.43;;;19.50;99.90;;;;;;5028097;28;20052;-66
2022/08/11 02:50:24;;;;;;;0.00;0.00;;;19.50;99.90;;;;;;5044294;28;20037;-66
2022/08/11 02:53:18;;;;;;;0.25;0.25;;;19.50;99.90;;;;;;5048926;28;20037;-67
2022/08/11 02:55:56;;;;;;;0.00;0.00;;;19.50;99.90;;;;;;5039747;28;20044;-66
2022/08/11 02:58:43;;;;;;;0.00;0.00;;;19.50;99.90;;;;;;5041158;28;20044;-67
2022/08/11 03:01:22;;;;;;;0.00;0.00;;;19.40;99.90;;;;;;5039223;28;20057;-67
2022/08/11 03:04:05;;;;;;;0.00;0.00;;;19.40;99.90;;;;;;5044023;28;20445;-66
2022/08/11 03:07:21;;;;;;;0.13;0.13;;;19.40;99.90;;;;;;5045194;28;20098;-67
2022/08/11 03:10:01;;;;;;;0.50;0.50;;;19.40;99.90;;;;;;5034750;28;20062;-66
2022/08/11 03:18:55;;;;;;;0.43;0.43;;;19.40;99.90;;;;;;5022169;28;20045;-66
2022/08/11 03:21:33;;;;;;;0.13;0.13;;;19.30;99.90;;;;;;5028523;28;20052;-66
2022/08/11 03:24:20;;;;;;;0.00;0.00;;;19.40;99.90;;;;;;5028749;28;20052;-66
2022/08/11 03:27:02;;;;;;;0.20;0.20;;;19.30;99.90;;;;;;5029667;28;20148;-66
2022/08/11 03:29:41;;;;;;;0.15;0.15;;;19.20;99.90;;;;;;5032985;28;20041;-66
2022/08/11 03:32:20;;;;;;;0.20;0.20;;;19.20;99.90;;;;;;5035228;28;20041;-66
2022/08/11 03:34:49;;;;;;;0.25;0.25;;;19.20;99.90;;;;;;5048421;28;20049;-66
2022/08/11 03:37:49;;;;;;;0.00;0.00;;;19.20;99.90;;;;;;5027278;28;20057;-66
2022/08/11 03:43:27;;;;;;;0.00;0.00;;;19.20;99.90;;;;;;5039620;28;20041;-66
2022/08/11 03:46:11;;;;;;;0.30;0.15;;;19.10;99.90;;;;;;5045407;28;20459;-66
2022/08/11 03:48:42;;;;;;;0.00;0.00;;;19.10;99.90;;;;;;5027530;28;20057;-66
2022/08/11 03:51:22;;;;;;;0.10;0.10;;;19.10;99.90;;;;;;5031294;28;20045;-66
2022/08/11 03:54:14;;;;;;;0.10;0.10;;;19.10;99.90;;;;;;5043589;28;20119;-66
2022/08/11 03:57:17;;;;;;;0.10;0.10;;;19.10;99.90;;;;;;5026913;28;20060;-66
2022/08/11 04:00:12;;;;;;;0.08;0.08;;;19.10;99.90;;;;;;5027447;28;20392;-66
2022/08/11 04:02:50;;;;;;;0.73;0.47;;;19.10;99.90;;;;;;5033493;28;20467;-66
2022/08/11 04:05:31;;;;;;;0.20;0.20;;;19.00;99.90;;;;;;5044197;28;20083;-66
2022/08/11 04:08:13;;;;;;;0.00;0.00;;;19.00;99.90;;;;;;5030635;28;20089;-66
2022/08/11 04:11:10;;;;;;;0.05;0.05;;;19.00;99.90;;;;;;5046616;28;20148;-66
2022/08/11 04:17:18;;;;;;;2.42;0.65;;;19.00;99.90;;;;;;5028053;28;20045;-66
2022/08/11 04:20:07;;;;;;;2.78;0.73;;;19.00;99.90;;;;;;5032764;28;20532;-66
2022/08/11 04:22:38;;;;;;;0.00;0.00;;;19.00;99.90;;;;;;5046966;28;20090;-66
2022/08/11 04:25:33;;;;;;;0.15;0.15;;;18.90;99.90;;;;;;5028559;28;20042;-66
2022/08/11 04:28:30;;;;;;;0.15;0.15;;;18.90;99.90;;;;;;5040138;28;20052;-66
2022/08/11 04:31:29;;;;;;;0.20;0.20;;;18.90;99.90;;;;;;5027592;28;20049;-66
2022/08/11 04:34:30;;;;;;;0.45;0.25;;;18.90;99.90;;;;;;5045657;28;20040;-66
2022/08/11 04:40:38;;;;;;;0.00;0.00;;;18.80;99.90;;;;;;5045932;28;20095;-66
2022/08/11 04:43:30;;;;;;;0.13;0.13;;;18.80;99.90;;;;;;5041704;28;20489;-66
2022/08/11 04:46:26;;;;;;;0.90;0.82;;;18.90;99.90;;;;;;5031506;28;20179;-66
2022/08/11 05:02:20;;;;;;;0.15;0.15;;;18.90;99.90;;;;;;5028465;28;20068;-66
2022/08/11 05:08:03;;;;;;;4.18;0.88;;;18.90;99.90;;;;;;5039036;28;20079;-67
2022/08/11 05:11:02;;;;;;;0.00;0.00;;;19.00;99.90;;;;;;5050281;28;20386;-66
2022/08/11 05:36:53;;;;;;;0.40;0.40;;;19.30;99.90;;;;;;5040406;28;20131;-66
2022/08/11 05:56:16;;;;;;;0.10;0.10;;;19.50;99.90;;;;;;5033504;28;20049;-67
2022/08/11 05:58:45;;;;;;;0.30;0.30;;;19.50;99.90;;;;;;5029313;28;20053;-67
2022/08/11 06:01:13;;;;;;;0.32;0.32;;;19.60;99.90;;;;;;5042147;28;20412;-67
2022/08/11 06:06:29;;;;;;;0.45;0.45;;;19.70;99.90;;;;;;5048566;28;20047;-66
2022/08/11 06:08:56;;;;;;;0.22;0.22;;;19.70;99.90;;;;;;5037810;28;20080;-67
2022/08/11 06:11:23;;;;;;;0.20;0.20;;;19.70;99.90;;;;;;5041603;28;20048;-67
2022/08/11 06:13:49;;;;;;;0.00;0.00;;;19.70;99.90;;;;;;5036686;28;20607;-67
2022/08/11 06:16:21;;;;;;;6.55;1.08;;;19.80;99.90;;;;;;5028365;28;20045;-67
2022/08/11 06:18:48;;;;;;;0.00;0.00;;;19.80;99.90;;;;;;5036394;28;20052;-67
2022/08/11 06:21:15;;;;;;;0.00;0.00;;;19.80;99.90;;;;;;5046478;28;20033;-67
2022/08/11 06:23:43;;;;;;;0.03;0.03;;;19.90;99.90;;;;;;5036669;28;20053;-67
2022/08/11 06:26:10;;;;;;;0.00;0.00;;;19.90;99.90;;;;;;5035958;28;20041;-67
2022/08/11 06:28:37;;;;;;;0.15;0.15;;;19.90;99.90;;;;;;5042686;28;20045;-67
2022/08/11 06:31:23;;;;;;;0.00;0.00;;;20.00;99.90;;;;;;5030515;28;20057;-67
2022/08/11 06:34:00;;;;;;;0.00;0.00;;;20.00;99.90;;;;;;5048369;28;20155;-66
2022/08/11 06:36:40;;;;;;;0.00;0.00;;;20.00;99.90;;;;;;5050222;28;20064;-66
2022/08/11 06:39:25;;;;;;;0.90;0.30;;;20.00;99.90;;;;;;5028995;28;20068;-67
2022/08/11 06:41:58;;;;;;;0.10;0.10;;;20.10;99.90;;;;;;5033493;28;20048;-67
2022/08/11 06:44:38;;;;;;;0.00;0.00;;;20.10;99.90;;;;;;5048642;28;20600;-67
2022/08/11 06:47:09;;;;;;;0.00;0.00;;;20.20;99.90;;;;;;5043828;28;20041;-67
2022/08/11 06:52:36;;;;;;;0.00;0.00;;;20.30;99.90;;;;;;5045987;28;20059;-67
2022/08/11 06:55:09;;;;;;;0.08;0.08;;;20.30;99.90;;;;;;5036245;28;20052;-67
2022/08/11 07:00:29;;;;;;;0.00;0.00;;;20.40;99.90;;;;;;5039456;28;20045;-67
2022/08/11 07:03:12;;;;;;;0.00;0.00;;;20.50;99.90;;;;;;5028104;28;20516;-67
2022/08/11 07:06:29;;;;;;;0.00;0.00;;;20.50;99.90;;;;;;5028188;28;20132;-67
2022/08/11 07:28:54;;;;;;;0.00;0.00;;;20.80;99.90;;;;;;5028840;28;20057;-67
2022/08/11 07:28:55;;;;;;;0.00;0.00;;;21.00;99.90;;;;;;5028279;28;20049;-67
2022/08/11 07:31:34;;;;;;;0.00;0.00;;;21.10;99.90;;;;;;5027712;28;20088;-67
2022/08/11 07:34:18;;;;;;;0.25;0.25;;;21.10;99.90;;;;;;5027047;28;20049;-67
2022/08/11 07:36:59;;;;;;;0.00;0.00;;;21.10;99.90;;;;;;5026977;28;20046;-67
2022/08/11 07:39:27;;;;;;;0.10;0.10;;;21.20;99.90;;;;;;5027825;28;20136;-67
2022/08/11 07:41:57;;;;;;;0.03;0.03;;;21.20;99.90;;;;;;5040961;28;20041;-67
2022/08/11 07:44:30;;;;;;;0.00;0.00;;;21.30;99.90;;;;;;5027285;28;20049;-67
2022/08/11 07:52:33;;;;;;;0.00;0.00;;;21.50;99.90;;;;;;5027973;28;20054;-69
2022/08/11 07:55:02;;;;;;;0.00;0.00;;;21.50;99.90;;;;;;5046421;28;20045;-67
2022/08/11 08:19:35;;;;;;;0.38;0.38;;;21.90;99.90;;;;;;5031539;28;20405;-67
2022/08/11 08:22:02;;;;;;;0.00;0.00;;;22.00;99.90;;;;;;5031585;28;20045;-67
2022/08/11 08:24:28;;;;;;;0.00;0.00;;;22.10;99.90;;;;;;5030962;28;20041;-67
2022/08/11 08:26:58;;;;;;;0.00;0.00;;;22.10;99.90;;;;;;5034644;28;20400;-67
2022/08/11 08:32:20;;;;;;;0.10;0.10;;;22.20;99.90;;;;;;5051054;28;20053;-67
2022/08/11 08:34:54;;;;;;;0.00;0.00;;;22.30;99.90;;;;;;5046665;28;20374;-67
2022/08/11 08:37:22;;;;;;;1.27;0.20;;;22.30;99.90;;;;;;5035955;28;20041;-67
2022/08/11 08:39:49;;;;;;;0.00;0.00;;;22.40;99.90;;;;;;5031362;28;20048;-67
2022/08/11 08:42:23;;;;;;;0.00;0.00;;;22.40;99.90;;;;;;5033363;28;20046;-67
2022/08/11 08:44:52;;;;;;;0.00;0.00;;;22.50;99.90;;;;;;5031878;28;20080;-67
2022/08/11 08:47:18;;;;;;;0.10;0.10;;;22.60;99.90;;;;;;5030896;28;20081;-67
2022/08/11 08:49:49;;;;;;;0.00;0.00;;;22.70;99.90;;;;;;5031635;28;20037;-67
2022/08/11 08:52:19;;;;;;;0.38;0.38;;;22.80;99.90;;;;;;5050106;28;20055;-67
2022/08/11 08:54:49;;;;;;;0.43;0.32;;;22.90;99.90;;;;;;5030686;28;20046;-67
2022/08/11 08:57:17;;;;;;;0.00;0.00;;;23.00;99.90;;;;;;5031159;28;20532;-67
2022/08/11 08:59:46;;;;;;;0.30;0.30;;;23.20;99.90;;;;;;5031280;28;20124;-66
2022/08/11 09:02:12;;;;;;;0.00;0.00;;;23.20;99.90;;;;;;5030383;28;20405;-65
2022/08/11 09:04:39;;;;;;;0.00;0.00;;;23.40;99.90;;;;;;5030457;28;20095;-67
2022/08/11 09:07:11;;;;;;;0.32;0.32;;;23.40;99.90;;;;;;5030890;28;20049;-67
2022/08/11 09:09:46;;;;;;;0.00;0.00;;;23.60;99.90;;;;;;5030493;28;20038;-67
2022/08/11 09:12:12;;;;;;;0.00;0.00;;;23.60;99.90;;;;;;5030438;28;20049;-68
2022/08/11 09:17:26;;;;;;;0.00;0.00;;;23.90;99.90;;;;;;5030360;28;20049;-67
2022/08/11 09:19:59;;;;;;;0.47;0.47;;;24.10;99.90;;;;;;5030394;28;20041;-67
2022/08/11 09:28:03;;;;;;;0.00;0.00;;;24.90;99.90;;;;;;5035411;28;20133;-67
2022/08/11 09:30:30;;;;;;;6.95;0.30;;;25.30;99.90;;;;;;5027760;28;20068;-67
2022/08/11 09:33:00;;;;;;;0.00;0.00;;;25.50;99.90;;;;;;5030714;28;20524;-67
2022/08/11 09:35:30;;;;;;;0.00;0.00;;;25.80;99.90;;;;;;5029628;28;20049;-68
2022/08/11 09:40:45;;;;;;;0.13;0.00;;;26.20;99.90;;;;;;5029525;28;20459;-67
2022/08/11 09:45:59;;;;;;;0.00;0.00;;;26.60;99.90;;;;;;5033528;28;20045;-68
2022/08/11 09:48:29;;;;;;;0.00;0.00;;;26.80;99.90;;;;;;5042155;28;20116;-70
2022/08/11 09:50:57;;;;;;;0.00;0.00;;;27.20;99.90;;;;;;5047931;28;20069;-69
2022/08/11 09:53:25;;;;;;;0.05;0.05;;;27.40;99.90;;;;;;5036197;28;20049;-66
2022/08/11 09:55:51;;;;;;;0.00;0.00;;;27.50;99.90;;;;;;5031212;28;20045;-68
2022/08/11 09:58:18;;;;;;;0.00;0.00;;;27.70;99.90;;;;;;5031161;28;21380;-68
2022/08/11 10:00:47;;;;;;;0.00;0.00;;;28.00;99.90;;;;;;5034179;28;20127;-69
2022/08/11 10:03:20;;;;;;;0.00;0.00;;;28.30;99.90;;;;;;5029626;28;20045;-68
2022/08/11 10:08:36;;;;;;;0.00;0.00;;;28.60;99.90;;;;;;5029080;28;20133;-69
2022/08/11 10:11:02;;;;;;;0.00;0.00;;;28.90;99.50;;;;;;5028764;28;20099;-68
2022/08/11 10:15:32;;;;;;;0.00;0.00;;;29.00;98.80;;;;;;5031859;28;20045;-68
2022/08/11 10:16:26;;;;;;;0.00;0.00;;;29.20;98.80;;;;;;5042639;28;20071;-68
2022/08/11 10:18:54;;;;;;;0.00;0.00;;;29.40;98.50;;;;;;5029122;28;20325;-69
2022/08/11 10:21:43;;;;;;;0.80;0.40;;;29.50;98.00;;;;;;5029083;28;20183;-68
2022/08/11 10:26:59;;;;;;;0.10;0.10;;;29.80;97.70;;;;;;5029134;28;20081;-68
2022/08/11 10:35:02;;;;;;;0.00;0.00;;;30.20;98.00;;;;;;5040550;28;20714;-68
2022/08/11 10:37:35;;;;;;;0.00;0.00;;;30.30;96.20;;;;;;5029488;28;20096;-69
2022/08/11 10:40:03;;;;;;;;;;;30.30;96.80;;;;;;5031640;28;20045;-68
2022/08/11 10:47:59;;;;;;;0.00;0.00;;;30.60;95.80;;;;;;5047652;28;20064;-69
2022/08/11 10:58:49;;;;;;;0.45;0.20;;;30.70;95.00;;;;;;5037818;28;20041;-69
2022/08/11 11:01:33;;;;;;;0.00;0.00;;;30.70;95.00;;;;;;5044870;28;20056;-69
2022/08/11 11:04:13;;;;;;;0.00;0.00;;;30.60;94.70;;;;;;5041387;28;20088;-69
2022/08/11 11:07:12;;;;;;;0.08;0.08;;;30.60;94.40;;;;;;5042648;28;20049;-69
2022/08/11 11:09:49;;;;;;;0.17;0.17;;;30.70;94.00;;;;;;5035197;28;20049;-69
2022/08/11 11:18:10;;;;;;;0.00;0.00;;;31.20;94.60;;;;;;5034789;28;20046;-69
2022/08/11 11:20:44;;;;;;;0.00;0.00;;;31.30;94.30;;;;;;5035742;28;20033;-69
2022/08/11 11:23:21;;;;;;;0.00;0.00;;;31.30;93.60;;;;;;5043171;28;20486;-70
2022/08/11 11:26:05;;;;;;;0.00;0.00;;;31.40;93.70;;;;;;5039013;28;20106;-70
2022/08/11 11:28:46;;;;;;;0.20;0.20;;;31.50;93.90;;;;;;5040943;28;20575;-69
2022/08/11 11:31:30;;;;;;;0.43;0.43;;;31.20;93.00;;;;;;5036179;28;20054;-69
2022/08/11 11:34:06;;;;;;;0.00;0.00;;;31.30;93.40;;;;;;5037825;28;20057;-70
2022/08/11 11:36:55;;;;;;;0.00;0.00;;;31.50;93.00;;;;;;5039956;28;20044;-70
2022/08/11 11:39:24;;;;;;;0.00;0.00;;;31.60;92.90;;;;;;5036134;28;20717;-70
2022/08/11 11:41:55;;;;;;;0.00;0.00;;;31.70;93.20;;;;;;5039483;28;20057;-69
2022/08/11 11:44:22;;;;;;;3.72;0.30;;;31.70;93.40;;;;;;5030167;28;20116;-70
2022/08/11 11:46:49;;;;;;;0.10;0.10;;;31.70;93.80;;;;;;5039801;28;20059;-70
2022/08/11 11:49:18;;;;;;;0.00;0.00;;;31.80;92.90;;;;;;5046969;28;20040;-69
2022/08/11 11:51:46;;;;;;;0.00;0.00;;;31.80;93.30;;;;;;5043916;28;20120;-70
2022/08/11 11:54:14;;;;;;;0.00;0.00;;;31.90;93.70;;;;;;5051437;28;20389;-70
2022/08/11 11:56:42;;;;;;;0.00;0.00;;;31.80;93.10;;;;;;5048057;28;20073;-70
2022/08/11 12:01:54;;;;;;;0.15;0.05;;;32.10;93.00;;;;;;5050852;28;20065;-70
2022/08/11 12:04:21;;;;;;;0.22;0.22;;;32.20;92.50;;;;;;5049326;28;20161;-70
2022/08/11 12:06:47;;;;;;;0.00;0.00;;;32.00;91.50;;;;;;5039642;28;20044;-69
2022/08/11 12:09:17;;;;;;;0.00;0.00;;;32.20;93.30;;;;;;5044965;28;20057;-69
2022/08/11 12:14:29;;;;;;;0.00;0.00;;;32.30;91.90;;;;;;5041868;28;20115;-69
2022/08/11 12:16:55;;;;;;;0.00;0.00;;;32.20;91.80;;;;;;5040662;28;20045;-69
2022/08/11 12:19:29;;;;;;;0.00;0.00;;;32.20;91.50;;;;;;5045093;28;20048;-70
2022/08/11 12:27:28;;;;;;;0.00;0.00;;;32.40;91.80;;;;;;5056059;28;20045;-69
2022/08/11 12:30:04;;;;;;;0.00;0.00;;;32.40;92.20;;;;;;5049603;28;20065;-69
2022/08/11 12:32:33;;;;;;;0.00;0.00;;;32.40;92.10;;;;;;5037415;28;20038;-69
2022/08/11 12:35:00;;;;;;;0.00;0.00;;;32.30;91.50;;;;;;5045054;28;20041;-69
2022/08/11 12:37:38;;;;;;;0.30;0.30;;;32.50;90.90;;;;;;5033033;28;20045;-69
2022/08/11 12:45:45;;;;;;;0.00;0.00;;;32.50;91.30;;;;;;5039986;28;20049;-70
2022/08/11 12:54:01;;;;;;;0.00;0.00;;;32.60;90.50;;;;;;5040841;28;20462;-70
2022/08/11 13:04:57;;;;;;;0.00;0.00;;;32.40;91.10;;;;;;5040777;28;20464;-68
2022/08/11 13:07:25;;;;;;;0.10;0.10;;;32.60;90.60;;;;;;5036554;28;20559;-69
2022/08/11 13:09:51;;;;;;;0.10;0.00;;;32.60;90.00;;;;;;5039623;28;20045;-68
2022/08/11 13:15:03;;;;;;;0.20;0.20;;;32.40;89.90;;;;;;5039407;28;20440;-69
2022/08/11 13:17:29;;;;;;;0.00;0.00;;;32.70;89.50;;;;;;5040362;28;20091;-69
2022/08/11 13:19:58;;;;;;;0.10;0.10;;;32.80;89.20;;;;;;5047033;28;20079;-69
2022/08/11 13:22:25;;;;;;;0.05;0.05;;;32.70;90.40;;;;;;5046724;28;20115;-69
2022/08/11 13:24:54;;;;;;;0.00;0.00;;;32.60;88.60;;;;;;5037027;28;20053;-69
2022/08/11 13:27:20;;;;;;;0.00;0.00;;;32.70;88.80;;;;;;5059300;28;20045;-69
2022/08/11 13:29:48;;;;;;;0.00;0.00;;;32.60;90.60;;;;;;5041102;28;20041;-69
2022/08/11 13:32:15;;;;;;;0.00;0.00;;;32.70;91.20;;;;;;5040121;28;20053;-69
2022/08/11 13:34:42;;;;;;;0.00;0.00;;;32.80;92.30;;;;;;5044418;28;20111;-69
2022/08/11 13:37:13;;;;;;;0.45;0.35;;;32.50;92.50;;;;;;5046740;28;20041;-68
2022/08/11 13:39:45;;;;;;;0.00;0.00;;;32.20;92.50;;;;;;5037400;28;20053;-68
2022/08/11 13:42:12;;;;;;;;;;;32.30;92.90;;;;;;5043637;28;20680;-69
2022/08/11 13:44:38;;;;;;;0.08;0.08;;;32.30;93.20;;;;;;5046855;28;19920;-69
2022/08/11 13:47:06;;;;;;;0.98;0.30;;;32.20;92.70;;;;;;5040852;28;20109;-68
2022/08/11 13:49:38;;;;;;;0.10;0.10;;;32.10;92.70;;;;;;5039627;28;20033;-69
2022/08/11 13:52:06;;;;;;;0.10;0.10;;;32.10;93.00;;;;;;5043386;28;20408;-69
2022/08/11 13:54:37;;;;;;;0.15;0.15;;;32.20;92.90;;;;;;5049311;28;20045;-69
2022/08/11 13:57:06;;;;;;;0.35;0.32;;;32.30;93.10;;;;;;5036497;28;20049;-69
2022/08/11 13:59:32;;;;;;;0.63;0.10;;;32.30;92.40;;;;;;5041090;28;20041;-67
2022/08/11 14:02:07;;;;;;;0.00;0.00;;;32.30;92.40;;;;;;5047404;28;20061;-69
2022/08/11 14:04:42;;;;;;;0.00;0.00;;;32.20;92.90;;;;;;5047789;28;20044;-68
2022/08/11 14:07:10;;;;;;;1.88;1.35;;;32.10;92.30;;;;;;5040195;28;20116;-68
2022/08/11 14:09:38;;;;;;;0.35;0.30;;;32.10;92.10;;;;;;5045340;28;20040;-69
2022/08/11 14:15:23;;;;;;;0.32;0.32;;;32.00;92.50;;;;;;5034158;28;20467;-69
2022/08/11 14:18:12;;;;;;;;;;;31.90;92.00;;;;;;5037476;28;20066;-69
2022/08/11 14:23:30;;;;;;;0.00;0.00;;;32.00;92.20;;;;;;5039936;28;20139;-69
2022/08/11 14:28:41;;;;;;;0.00;0.00;;;32.10;92.10;;;;;;5048236;28;20505;-69
2022/08/11 14:31:08;;;;;;;1.98;0.35;;;31.90;91.10;;;;;;5043421;28;20416;-69
2022/08/11 14:33:34;;;;;;;0.20;0.00;;;31.80;91.90;;;;;;5034998;28;20409;-69
2022/08/11 14:36:04;;;;;;;0.20;0.20;;;31.90;91.50;;;;;;5033306;28;20057;-69
2022/08/11 14:38:33;;;;;;;0.00;0.00;;;31.70;91.60;;;;;;5040140;28;20044;-69
2022/08/11 14:49:13;;;;;;;0.38;0.38;;;31.60;92.00;;;;;;5031784;28;20055;-68
2022/08/11 14:51:40;;;;;;;0.00;0.00;;;31.50;91.50;;;;;;5037941;28;20056;-68
2022/08/11 14:56:52;;;;;;;0.00;0.00;;;31.40;91.40;;;;;;5041138;28;20107;-69
2022/08/11 14:59:18;;;;;;;0.08;0.08;;;31.30;91.20;;;;;;5037163;28;20094;-68
2022/08/11 15:04:30;;;;;;;0.00;0.00;;;31.20;91.70;;;;;;5031725;28;20497;-68
2022/08/11 15:06:56;;;;;;;0.00;0.00;;;31.20;92.00;;;;;;5042758;28;20115;-68
2022/08/11 15:09:21;;;;;;;0.00;0.00;;;31.00;91.00;;;;;;5033139;28;20623;-68
2022/08/11 15:17:16;;;;;;;0.10;0.10;;;30.80;92.70;;;;;;5030113;28;20053;-68
2022/08/11 15:25:12;;;;;;;0.03;0.00;;;30.50;91.90;;;;;;5033818;28;20048;-68
2022/08/11 15:38:54;;;;;;;0.10;0.10;;;29.70;92.30;;;;;;5030190;28;20107;-68
2022/08/11 15:47:00;;;;;;;0.00;0.00;;;29.40;92.60;;;;;;5030838;28;20045;-68
2022/08/11 15:49:33;;;;;;;0.10;0.10;;;29.30;92.80;;;;;;5035179;28;20520;-68
2022/08/11 15:52:07;;;;;;;0.00;0.00;;;29.10;92.80;;;;;;5031184;28;20038;-68
2022/08/11 15:54:37;;;;;;;0.00;0.00;;;29.00;92.80;;;;;;5045634;28;20122;-68
2022/08/11 15:57:04;;;;;;;0.00;0.00;;;29.00;93.50;;;;;;5029685;28;20429;-68
2022/08/11 16:05:12;;;;;;;0.00;0.00;;;28.80;93.90;;;;;;5033740;28;20045;-68
2022/08/11 16:07:40;;;;;;;0.17;0.13;;;28.70;93.30;;;;;;5046874;28;20132;-67
2022/08/11 16:10:18;;;;;;;0.08;0.08;;;28.60;93.20;;;;;;5046954;28;20395;-68
2022/08/11 16:18:39;;;;;;;0.00;0.00;;;28.40;93.30;;;;;;5030766;28;20156;-68
2022/08/11 16:21:11;;;;;;;0.00;0.00;;;28.20;93.30;;;;;;5040126;28;20069;-68
2022/08/11 16:23:41;;;;;;;0.45;0.32;;;28.20;93.60;;;;;;5039732;28;20128;-68
2022/08/11 16:26:08;;;;;;;0.00;0.00;;;28.10;93.80;;;;;;5036260;28;20094;-68
2022/08/11 16:28:35;;;;;;;0.00;0.00;;;28.10;93.80;;;;;;5047051;28;20056;-68
2022/08/11 16:31:01;;;;;;;0.00;0.00;;;28.00;93.40;;;;;;5033528;28;20422;-68
2022/08/11 16:33:29;;;;;;;1.88;1.27;;;27.90;93.90;;;;;;5041636;28;20037;-67
2022/08/11 16:38:41;;;;;;;0.00;0.00;;;27.80;94.00;;;;;;5045890;28;20045;-67
2022/08/11 16:41:09;;;;;;;0.10;0.10;;;27.80;94.60;;;;;;5044591;28;20045;-68
2022/08/11 16:49:23;;;;;;;0.05;0.05;;;27.70;94.20;;;;;;5041543;28;20127;-68
2022/08/11 16:51:49;;;;;;;0.00;0.00;;;27.60;93.50;;;;;;5048779;28;20545;-68
2022/08/11 16:54:15;;;;;;;0.00;0.00;;;27.60;93.60;;;;;;5044277;28;20045;-68
2022/08/11 16:56:50;;;;;;;0.00;0.00;;;27.60;94.80;;;;;;5065089;28;20448;-68
2022/08/11 16:59:35;;;;;;;0.00;0.00;;;27.50;94.10;;;;;;5034362;28;20049;-68
2022/08/11 17:02:07;;;;;;;0.22;0.03;;;27.50;94.30;;;;;;5041243;28;20057;-68
2022/08/11 17:13:19;;;;;;;0.20;0.20;;;27.40;94.70;;;;;;5047568;28;20049;-68
2022/08/11 17:16:07;;;;;;;0.10;0.10;;;27.30;94.90;;;;;;5042862;28;20049;-68
2022/08/11 17:18:50;;;;;;;0.00;0.00;;;27.30;94.80;;;;;;5058970;28;20144;-68
2022/08/11 17:21:34;;;;;;;0.00;0.00;;;27.30;95.00;;;;;;5048108;28;20045;-68
2022/08/11 17:24:07;;;;;;;0.10;0.10;;;27.30;95.00;;;;;;5034281;28;20045;-68
2022/08/11 17:26:55;;;;;;;0.00;0.00;;;27.30;95.50;;;;;;5040165;28;20076;-68
2022/08/11 17:29:36;;;;;;;0.00;0.00;;;27.20;96.00;;;;;;5037222;28;20049;-68
2022/08/11 17:38:02;;;;;;;0.95;0.10;;;27.10;94.70;;;;;;5048494;28;20045;-68
2022/08/11 17:40:30;;;;;;;0.00;0.00;;;27.00;95.00;;;;;;5039066;28;20053;-68
2022/08/11 17:48:31;;;;;;;0.35;0.35;;;26.90;94.50;;;;;;5040318;28;20049;-69
2022/08/11 17:51:08;;;;;;;0.00;0.00;;;26.90;95.00;;;;;;5045468;28;20048;-69
2022/08/11 18:03:28;;;;;;;0.00;0.00;;;26.70;95.10;;;;;;5048765;28;20053;-68
2022/08/11 18:04:50;;;;;;;0.25;0.22;;;26.60;95.30;;;;;;5029795;28;20045;-68
